sensor_id;sensor_type;location;lat;lon;timestamp;P1;durP1;ratioP1;P2;durP2;ratioP2
2023;SDS011;1016;48.770;9.154;2023-03-25T00:00:53;15.97;;;1.10;;
2023;SDS011;1016;48.770;9.154;2023-03-25T00:03:26;15.97;;;0.90;;
2023;SDS011;1016;48.770;9.154;2023-03-25T00:05:54;17.80;;;0.97;;
2023;SDS011;1016;48.770;9.154;2023-03-25T00:08:21;15.30;;;0.73;;
2023;SDS011;1016;48.770;9.154;2023-03-25T00:10:52;15.47;;;0.90;;
2023;SDS011;1016;48.770;9.154;2023-03-25T00:13:19;17.90;;;0.80;;
2023;SDS011;1016;48.770;9.154;2023-03-25T00:15:46;15.63;;;0.83;;
2023;SDS011;1016;48.770;9.154;2023-03-25T00:18:12;15.77;;;0.90;;
2023;SDS011;1016;48.770;9.154;2023-03-25T00:20:38;16.00;;;0.80;;
2023;SDS011;1016;48.770;9.154;2023-03-25T00:23:05;15.47;;;0.70;;
2023;SDS011;1016;48.770;9.154;2023-03-25T00:25:31;15.77;;;0.63;;
2023;SDS011;1016;48.770;9.154;2023-03-25T00:27:57;16.20;;;0.80;;
2023;SDS011;1016;48.770;9.154;2023-03-25T00:30:23;15.77;;;0.90;;
2023;SDS011;1016;48.770;9.154;2023-03-25T00:32:48;16.00;;;0.73;;
2023;SDS011;1016;48.770;9.154;2023-03-25T00:35:16;15.40;;;0.80;;
2023;SDS011;1016;48.770;9.154;2023-03-25T00:37:46;16.23;;;0.90;;
2023;SDS011;1016;48.770;9.154;2023-03-25T00:40:21;15.77;;;0.80;;
2023;SDS011;1016;48.770;9.154;2023-03-25T00:42:47;15.47;;;0.77;;
2023;SDS011;1016;48.770;9.154;2023-03-25T00:45:14;15.70;;;0.70;;
2023;SDS011;1016;48.770;9.154;2023-03-25T00:47:40;15.70;;;0.70;;
2023;SDS011;1016;48.770;9.154;2023-03-25T00:50:06;16.07;;;0.77;;
2023;SDS011;1016;48.770;9.154;2023-03-25T00:52:32;17.73;;;0.90;;
2023;SDS011;1016;48.770;9.154;2023-03-25T00:54:58;16.17;;;0.87;;
2023;SDS011;1016;48.770;9.154;2023-03-25T00:57:23;16.07;;;0.90;;
2023;SDS011;1016;48.770;9.154;2023-03-25T00:59:49;16.17;;;0.90;;
2023;SDS011;1016;48.770;9.154;2023-03-25T01:02:14;17.63;;;1.10;;
2023;SDS011;1016;48.770;9.154;2023-03-25T01:04:40;16.77;;;0.93;;
2023;SDS011;1016;48.770;9.154;2023-03-25T01:07:06;17.30;;;1.40;;
2023;SDS011;1016;48.770;9.154;2023-03-25T01:09:31;16.03;;;1.10;;
2023;SDS011;1016;48.770;9.154;2023-03-25T01:11:57;17.50;;;1.20;;
2023;SDS011;1016;48.770;9.154;2023-03-25T01:14:23;16.60;;;0.97;;
2023;SDS011;1016;48.770;9.154;2023-03-25T01:16:51;17.30;;;0.97;;
2023;SDS011;1016;48.770;9.154;2023-03-25T01:19:18;16.50;;;1.20;;
2023;SDS011;1016;48.770;9.154;2023-03-25T01:21:43;16.57;;;1.40;;
2023;SDS011;1016;48.770;9.154;2023-03-25T01:24:09;16.63;;;1.20;;
2023;SDS011;1016;48.770;9.154;2023-03-25T01:26:37;18.70;;;1.10;;
2023;SDS011;1016;48.770;9.154;2023-03-25T01:29:05;16.07;;;1.00;;
2023;SDS011;1016;48.770;9.154;2023-03-25T01:31:31;16.20;;;1.23;;
2023;SDS011;1016;48.770;9.154;2023-03-25T01:33:56;19.90;;;1.37;;
2023;SDS011;1016;48.770;9.154;2023-03-25T01:36:23;18.00;;;1.50;;
2023;SDS011;1016;48.770;9.154;2023-03-25T01:38:50;17.10;;;1.13;;
2023;SDS011;1016;48.770;9.154;2023-03-25T01:41:15;17.07;;;1.10;;
2023;SDS011;1016;48.770;9.154;2023-03-25T01:43:41;17.70;;;1.10;;
2023;SDS011;1016;48.770;9.154;2023-03-25T01:46:44;16.50;;;1.10;;
2023;SDS011;1016;48.770;9.154;2023-03-25T01:49:15;17.13;;;1.17;;
2023;SDS011;1016;48.770;9.154;2023-03-25T01:51:47;16.10;;;1.00;;
2023;SDS011;1016;48.770;9.154;2023-03-25T01:54:17;17.43;;;1.03;;
2023;SDS011;1016;48.770;9.154;2023-03-25T01:56:44;17.10;;;0.97;;
2023;SDS011;1016;48.770;9.154;2023-03-25T01:59:12;17.90;;;1.10;;
2023;SDS011;1016;48.770;9.154;2023-03-25T02:01:41;16.70;;;1.00;;
2023;SDS011;1016;48.770;9.154;2023-03-25T02:04:09;17.97;;;1.07;;
2023;SDS011;1016;48.770;9.154;2023-03-25T02:09:08;16.33;;;0.97;;
2023;SDS011;1016;48.770;9.154;2023-03-25T02:11:36;17.27;;;1.30;;
2023;SDS011;1016;48.770;9.154;2023-03-25T02:14:06;16.63;;;1.00;;
2023;SDS011;1016;48.770;9.154;2023-03-25T02:28:18;18.30;;;1.20;;
2023;SDS011;1016;48.770;9.154;2023-03-25T02:42:25;20.63;;;1.30;;
2023;SDS011;1016;48.770;9.154;2023-03-25T02:45:04;16.77;;;1.10;;
2023;SDS011;1016;48.770;9.154;2023-03-25T02:47:42;16.50;;;1.10;;
2023;SDS011;1016;48.770;9.154;2023-03-25T02:50:13;17.20;;;1.37;;
2023;SDS011;1016;48.770;9.154;2023-03-25T02:52:48;17.57;;;1.20;;
2023;SDS011;1016;48.770;9.154;2023-03-25T02:55:17;16.73;;;1.07;;
2023;SDS011;1016;48.770;9.154;2023-03-25T02:57:46;19.40;;;1.03;;
2023;SDS011;1016;48.770;9.154;2023-03-25T03:00:17;17.43;;;1.17;;
2023;SDS011;1016;48.770;9.154;2023-03-25T03:02:51;16.23;;;0.90;;
2023;SDS011;1016;48.770;9.154;2023-03-25T03:05:25;17.87;;;1.13;;
2023;SDS011;1016;48.770;9.154;2023-03-25T03:10:42;16.50;;;0.93;;
2023;SDS011;1016;48.770;9.154;2023-03-25T03:15:52;16.40;;;1.00;;
2023;SDS011;1016;48.770;9.154;2023-03-25T03:22:07;16.17;;;0.80;;
2023;SDS011;1016;48.770;9.154;2023-03-25T03:24:39;17.70;;;1.10;;
2023;SDS011;1016;48.770;9.154;2023-03-25T03:27:33;16.60;;;0.70;;
2023;SDS011;1016;48.770;9.154;2023-03-25T03:30:08;16.50;;;1.00;;
2023;SDS011;1016;48.770;9.154;2023-03-25T03:32:51;16.20;;;0.80;;
2023;SDS011;1016;48.770;9.154;2023-03-25T03:35:29;16.70;;;0.90;;
2023;SDS011;1016;48.770;9.154;2023-03-25T03:37:59;15.80;;;0.70;;
2023;SDS011;1016;48.770;9.154;2023-03-25T03:40:29;16.20;;;0.93;;
2023;SDS011;1016;48.770;9.154;2023-03-25T03:43:03;16.07;;;0.80;;
2023;SDS011;1016;48.770;9.154;2023-03-25T03:45:33;16.57;;;1.00;;
2023;SDS011;1016;48.770;9.154;2023-03-25T03:48:15;16.20;;;0.80;;
2023;SDS011;1016;48.770;9.154;2023-03-25T03:50:51;16.07;;;0.80;;
2023;SDS011;1016;48.770;9.154;2023-03-25T03:53:28;15.97;;;0.70;;
2023;SDS011;1016;48.770;9.154;2023-03-25T03:56:14;15.63;;;0.60;;
2023;SDS011;1016;48.770;9.154;2023-03-25T03:58:47;16.63;;;0.77;;
2023;SDS011;1016;48.770;9.154;2023-03-25T04:01:30;15.77;;;0.70;;
2023;SDS011;1016;48.770;9.154;2023-03-25T04:04:00;16.30;;;0.80;;
2023;SDS011;1016;48.770;9.154;2023-03-25T04:06:38;16.33;;;0.70;;
2023;SDS011;1016;48.770;9.154;2023-03-25T04:09:29;16.20;;;0.80;;
2023;SDS011;1016;48.770;9.154;2023-03-25T04:12:09;15.80;;;0.70;;
2023;SDS011;1016;48.770;9.154;2023-03-25T04:14:40;15.57;;;0.73;;
2023;SDS011;1016;48.770;9.154;2023-03-25T04:17:06;16.40;;;0.70;;
2023;SDS011;1016;48.770;9.154;2023-03-25T04:19:32;15.70;;;0.70;;
2023;SDS011;1016;48.770;9.154;2023-03-25T04:21:59;15.80;;;0.70;;
2023;SDS011;1016;48.770;9.154;2023-03-25T04:24:26;15.80;;;0.70;;
2023;SDS011;1016;48.770;9.154;2023-03-25T04:26:55;15.77;;;0.60;;
2023;SDS011;1016;48.770;9.154;2023-03-25T04:29:23;16.10;;;0.60;;
2023;SDS011;1016;48.770;9.154;2023-03-25T04:31:49;15.90;;;0.60;;
2023;SDS011;1016;48.770;9.154;2023-03-25T04:34:18;16.40;;;0.80;;
2023;SDS011;1016;48.770;9.154;2023-03-25T04:36:45;16.47;;;0.80;;
2023;SDS011;1016;48.770;9.154;2023-03-25T04:39:13;16.77;;;0.80;;
2023;SDS011;1016;48.770;9.154;2023-03-25T04:41:41;16.90;;;0.60;;
2023;SDS011;1016;48.770;9.154;2023-03-25T04:44:08;15.90;;;0.70;;
2023;SDS011;1016;48.770;9.154;2023-03-25T04:46:34;15.50;;;0.70;;
2023;SDS011;1016;48.770;9.154;2023-03-25T04:49:01;16.60;;;0.77;;
2023;SDS011;1016;48.770;9.154;2023-03-25T04:51:30;16.90;;;0.70;;
2023;SDS011;1016;48.770;9.154;2023-03-25T04:53:56;16.30;;;0.73;;
2023;SDS011;1016;48.770;9.154;2023-03-25T04:56:22;18.20;;;0.90;;
2023;SDS011;1016;48.770;9.154;2023-03-25T04:58:48;16.93;;;0.80;;
2023;SDS011;1016;48.770;9.154;2023-03-25T05:01:18;17.07;;;0.87;;
2023;SDS011;1016;48.770;9.154;2023-03-25T05:03:56;16.30;;;0.83;;
2023;SDS011;1016;48.770;9.154;2023-03-25T05:06:29;16.23;;;0.80;;
2023;SDS011;1016;48.770;9.154;2023-03-25T05:08:57;17.93;;;0.90;;
2023;SDS011;1016;48.770;9.154;2023-03-25T05:11:23;17.07;;;0.93;;
2023;SDS011;1016;48.770;9.154;2023-03-25T05:13:49;17.30;;;0.90;;
2023;SDS011;1016;48.770;9.154;2023-03-25T05:16:14;16.47;;;0.90;;
2023;SDS011;1016;48.770;9.154;2023-03-25T05:18:40;16.60;;;0.93;;
2023;SDS011;1016;48.770;9.154;2023-03-25T05:21:05;18.00;;;1.10;;
2023;SDS011;1016;48.770;9.154;2023-03-25T05:23:31;17.90;;;1.10;;
2023;SDS011;1016;48.770;9.154;2023-03-25T05:25:57;17.43;;;1.00;;
2023;SDS011;1016;48.770;9.154;2023-03-25T05:28:23;18.00;;;1.03;;
2023;SDS011;1016;48.770;9.154;2023-03-25T05:30:48;17.73;;;1.03;;
2023;SDS011;1016;48.770;9.154;2023-03-25T05:33:16;17.90;;;1.10;;
2023;SDS011;1016;48.770;9.154;2023-03-25T05:35:42;16.93;;;1.10;;
2023;SDS011;1016;48.770;9.154;2023-03-25T05:38:08;19.13;;;1.30;;
2023;SDS011;1016;48.770;9.154;2023-03-25T05:40:40;17.60;;;1.20;;
2023;SDS011;1016;48.770;9.154;2023-03-25T05:43:06;17.57;;;1.10;;
2023;SDS011;1016;48.770;9.154;2023-03-25T05:45:32;17.67;;;1.00;;
2023;SDS011;1016;48.770;9.154;2023-03-25T05:47:59;17.20;;;1.00;;
2023;SDS011;1016;48.770;9.154;2023-03-25T05:50:26;20.80;;;1.00;;
2023;SDS011;1016;48.770;9.154;2023-03-25T05:52:52;17.37;;;1.17;;
2023;SDS011;1016;48.770;9.154;2023-03-25T05:55:19;18.00;;;1.30;;
2023;SDS011;1016;48.770;9.154;2023-03-25T05:57:47;17.40;;;1.30;;
2023;SDS011;1016;48.770;9.154;2023-03-25T06:00:13;18.00;;;1.40;;
2023;SDS011;1016;48.770;9.154;2023-03-25T06:02:40;17.00;;;1.10;;
2023;SDS011;1016;48.770;9.154;2023-03-25T06:05:09;22.10;;;1.30;;
2023;SDS011;1016;48.770;9.154;2023-03-25T06:07:39;17.27;;;1.20;;
2023;SDS011;1016;48.770;9.154;2023-03-25T06:10:10;18.00;;;1.13;;
2023;SDS011;1016;48.770;9.154;2023-03-25T06:12:37;16.10;;;0.80;;
2023;SDS011;1016;48.770;9.154;2023-03-25T06:15:06;18.57;;;1.23;;
2023;SDS011;1016;48.770;9.154;2023-03-25T06:17:33;19.07;;;1.33;;
2023;SDS011;1016;48.770;9.154;2023-03-25T06:20:02;17.07;;;1.17;;
2023;SDS011;1016;48.770;9.154;2023-03-25T06:22:30;18.23;;;1.33;;
2023;SDS011;1016;48.770;9.154;2023-03-25T06:24:57;16.67;;;0.93;;
2023;SDS011;1016;48.770;9.154;2023-03-25T06:27:23;17.90;;;1.03;;
2023;SDS011;1016;48.770;9.154;2023-03-25T06:29:48;17.27;;;1.20;;
2023;SDS011;1016;48.770;9.154;2023-03-25T06:32:14;18.13;;;1.50;;
2023;SDS011;1016;48.770;9.154;2023-03-25T06:34:40;17.13;;;1.27;;
2023;SDS011;1016;48.770;9.154;2023-03-25T06:37:06;20.20;;;1.60;;
2023;SDS011;1016;48.770;9.154;2023-03-25T06:39:33;19.23;;;1.07;;
2023;SDS011;1016;48.770;9.154;2023-03-25T06:42:02;19.20;;;1.20;;
2023;SDS011;1016;48.770;9.154;2023-03-25T06:44:29;17.23;;;1.00;;
2023;SDS011;1016;48.770;9.154;2023-03-25T06:46:54;17.47;;;1.03;;
2023;SDS011;1016;48.770;9.154;2023-03-25T06:49:20;19.00;;;1.30;;
2023;SDS011;1016;48.770;9.154;2023-03-25T06:51:46;18.03;;;1.10;;
2023;SDS011;1016;48.770;9.154;2023-03-25T06:54:11;18.80;;;1.33;;
2023;SDS011;1016;48.770;9.154;2023-03-25T06:56:37;17.60;;;1.23;;
2023;SDS011;1016;48.770;9.154;2023-03-25T06:59:02;18.20;;;1.67;;
2023;SDS011;1016;48.770;9.154;2023-03-25T07:01:29;17.53;;;1.40;;
2023;SDS011;1016;48.770;9.154;2023-03-25T07:03:55;16.60;;;1.03;;
2023;SDS011;1016;48.770;9.154;2023-03-25T07:06:21;17.97;;;1.40;;
2023;SDS011;1016;48.770;9.154;2023-03-25T07:08:47;18.73;;;1.23;;
2023;SDS011;1016;48.770;9.154;2023-03-25T07:11:14;18.17;;;1.40;;
2023;SDS011;1016;48.770;9.154;2023-03-25T07:13:41;18.60;;;1.60;;
2023;SDS011;1016;48.770;9.154;2023-03-25T07:16:08;18.77;;;1.43;;
2023;SDS011;1016;48.770;9.154;2023-03-25T07:18:34;17.43;;;1.40;;
2023;SDS011;1016;48.770;9.154;2023-03-25T07:20:59;18.67;;;1.17;;
2023;SDS011;1016;48.770;9.154;2023-03-25T07:23:25;17.00;;;0.93;;
2023;SDS011;1016;48.770;9.154;2023-03-25T07:25:51;17.13;;;1.30;;
2023;SDS011;1016;48.770;9.154;2023-03-25T07:28:17;17.80;;;1.20;;
2023;SDS011;1016;48.770;9.154;2023-03-25T07:30:42;17.57;;;1.23;;
2023;SDS011;1016;48.770;9.154;2023-03-25T07:33:08;17.30;;;1.00;;
2023;SDS011;1016;48.770;9.154;2023-03-25T07:35:33;17.07;;;0.93;;
2023;SDS011;1016;48.770;9.154;2023-03-25T07:38:00;16.90;;;1.10;;
2023;SDS011;1016;48.770;9.154;2023-03-25T07:40:25;16.90;;;1.00;;
2023;SDS011;1016;48.770;9.154;2023-03-25T07:42:51;16.47;;;1.20;;
2023;SDS011;1016;48.770;9.154;2023-03-25T07:45:16;16.40;;;1.00;;
2023;SDS011;1016;48.770;9.154;2023-03-25T07:47:41;16.47;;;0.93;;
2023;SDS011;1016;48.770;9.154;2023-03-25T07:50:07;17.37;;;1.13;;
2023;SDS011;1016;48.770;9.154;2023-03-25T07:52:33;17.23;;;1.07;;
2023;SDS011;1016;48.770;9.154;2023-03-25T07:55:00;16.13;;;1.10;;
2023;SDS011;1016;48.770;9.154;2023-03-25T07:57:25;17.20;;;1.10;;
2023;SDS011;1016;48.770;9.154;2023-03-25T07:59:51;18.03;;;1.13;;
2023;SDS011;1016;48.770;9.154;2023-03-25T08:02:16;16.80;;;0.80;;
2023;SDS011;1016;48.770;9.154;2023-03-25T08:04:42;16.33;;;0.87;;
2023;SDS011;1016;48.770;9.154;2023-03-25T08:07:08;18.00;;;0.97;;
2023;SDS011;1016;48.770;9.154;2023-03-25T08:09:33;16.00;;;0.80;;
2023;SDS011;1016;48.770;9.154;2023-03-25T08:11:59;17.27;;;1.10;;
2023;SDS011;1016;48.770;9.154;2023-03-25T08:14:25;16.67;;;1.50;;
2023;SDS011;1016;48.770;9.154;2023-03-25T08:16:51;18.00;;;0.90;;
2023;SDS011;1016;48.770;9.154;2023-03-25T08:19:17;16.03;;;0.90;;
2023;SDS011;1016;48.770;9.154;2023-03-25T08:21:42;16.50;;;0.83;;
2023;SDS011;1016;48.770;9.154;2023-03-25T08:24:08;16.97;;;0.87;;
2023;SDS011;1016;48.770;9.154;2023-03-25T08:26:35;16.30;;;0.90;;
2023;SDS011;1016;48.770;9.154;2023-03-25T08:29:01;17.20;;;1.10;;
2023;SDS011;1016;48.770;9.154;2023-03-25T08:31:28;16.00;;;0.70;;
2023;SDS011;1016;48.770;9.154;2023-03-25T08:33:56;17.27;;;1.00;;
2023;SDS011;1016;48.770;9.154;2023-03-25T08:36:22;15.90;;;0.80;;
2023;SDS011;1016;48.770;9.154;2023-03-25T08:38:48;16.67;;;1.00;;
2023;SDS011;1016;48.770;9.154;2023-03-25T08:41:15;15.87;;;0.70;;
2023;SDS011;1016;48.770;9.154;2023-03-25T08:43:41;16.10;;;0.80;;
2023;SDS011;1016;48.770;9.154;2023-03-25T08:46:06;15.70;;;0.70;;
2023;SDS011;1016;48.770;9.154;2023-03-25T08:48:32;16.07;;;0.70;;
2023;SDS011;1016;48.770;9.154;2023-03-25T08:50:58;15.90;;;0.70;;
2023;SDS011;1016;48.770;9.154;2023-03-25T08:53:23;16.07;;;0.80;;
2023;SDS011;1016;48.770;9.154;2023-03-25T08:55:50;16.50;;;0.67;;
2023;SDS011;1016;48.770;9.154;2023-03-25T08:58:17;15.43;;;0.60;;
2023;SDS011;1016;48.770;9.154;2023-03-25T09:00:43;16.13;;;1.00;;
2023;SDS011;1016;48.770;9.154;2023-03-25T09:03:08;15.80;;;0.80;;
2023;SDS011;1016;48.770;9.154;2023-03-25T09:05:37;16.10;;;0.80;;
2023;SDS011;1016;48.770;9.154;2023-03-25T09:08:05;16.30;;;0.90;;
2023;SDS011;1016;48.770;9.154;2023-03-25T09:10:31;16.70;;;0.90;;
2023;SDS011;1016;48.770;9.154;2023-03-25T09:12:57;16.70;;;1.27;;
2023;SDS011;1016;48.770;9.154;2023-03-25T09:15:22;16.00;;;0.90;;
2023;SDS011;1016;48.770;9.154;2023-03-25T09:17:48;15.53;;;0.70;;
2023;SDS011;1016;48.770;9.154;2023-03-25T09:20:13;15.57;;;0.90;;
2023;SDS011;1016;48.770;9.154;2023-03-25T09:22:39;16.00;;;0.90;;
2023;SDS011;1016;48.770;9.154;2023-03-25T09:25:06;16.23;;;0.90;;
2023;SDS011;1016;48.770;9.154;2023-03-25T09:27:32;15.77;;;0.77;;
2023;SDS011;1016;48.770;9.154;2023-03-25T09:29:58;17.27;;;1.00;;
2023;SDS011;1016;48.770;9.154;2023-03-25T09:32:23;16.27;;;0.80;;
2023;SDS011;1016;48.770;9.154;2023-03-25T09:34:49;16.23;;;0.97;;
2023;SDS011;1016;48.770;9.154;2023-03-25T09:37:15;16.20;;;1.00;;
2023;SDS011;1016;48.770;9.154;2023-03-25T09:39:41;16.60;;;1.10;;
2023;SDS011;1016;48.770;9.154;2023-03-25T09:50:43;15.67;;;0.87;;
2023;SDS011;1016;48.770;9.154;2023-03-25T09:53:24;15.73;;;0.90;;
2023;SDS011;1016;48.770;9.154;2023-03-25T09:55:54;16.90;;;1.20;;
2023;SDS011;1016;48.770;9.154;2023-03-25T10:00:46;16.53;;;1.20;;
2023;SDS011;1016;48.770;9.154;2023-03-25T10:03:21;17.70;;;1.10;;
2023;SDS011;1016;48.770;9.154;2023-03-25T10:11:49;16.70;;;1.07;;
2023;SDS011;1016;48.770;9.154;2023-03-25T10:14:32;15.97;;;0.90;;
2023;SDS011;1016;48.770;9.154;2023-03-25T10:20:16;15.17;;;0.70;;
2023;SDS011;1016;48.770;9.154;2023-03-25T10:25:29;15.33;;;0.80;;
2023;SDS011;1016;48.770;9.154;2023-03-25T10:27:58;16.70;;;1.20;;
2023;SDS011;1016;48.770;9.154;2023-03-25T10:30:32;18.17;;;0.90;;
2023;SDS011;1016;48.770;9.154;2023-03-25T10:33:07;17.10;;;0.70;;
2023;SDS011;1016;48.770;9.154;2023-03-25T10:35:43;16.67;;;1.07;;
2023;SDS011;1016;48.770;9.154;2023-03-25T10:38:13;15.80;;;0.70;;
2023;SDS011;1016;48.770;9.154;2023-03-25T10:40:48;16.57;;;0.80;;
2023;SDS011;1016;48.770;9.154;2023-03-25T10:43:26;15.83;;;0.87;;
2023;SDS011;1016;48.770;9.154;2023-03-25T10:46:03;16.37;;;1.10;;
2023;SDS011;1016;48.770;9.154;2023-03-25T10:48:37;18.00;;;0.83;;
2023;SDS011;1016;48.770;9.154;2023-03-25T10:51:11;16.77;;;0.80;;
2023;SDS011;1016;48.770;9.154;2023-03-25T10:53:39;16.80;;;0.80;;
2023;SDS011;1016;48.770;9.154;2023-03-25T10:56:06;16.20;;;0.80;;
2023;SDS011;1016;48.770;9.154;2023-03-25T10:58:37;16.93;;;0.80;;
2023;SDS011;1016;48.770;9.154;2023-03-25T11:01:09;15.90;;;0.83;;
2023;SDS011;1016;48.770;9.154;2023-03-25T11:03:40;16.23;;;0.77;;
2023;SDS011;1016;48.770;9.154;2023-03-25T11:06:09;15.87;;;0.83;;
2023;SDS011;1016;48.770;9.154;2023-03-25T11:11:41;16.00;;;0.77;;
2023;SDS011;1016;48.770;9.154;2023-03-25T11:14:09;17.20;;;0.80;;
2023;SDS011;1016;48.770;9.154;2023-03-25T11:16:39;16.37;;;0.80;;
2023;SDS011;1016;48.770;9.154;2023-03-25T11:19:14;15.87;;;0.77;;
2023;SDS011;1016;48.770;9.154;2023-03-25T11:21:52;15.87;;;0.70;;
2023;SDS011;1016;48.770;9.154;2023-03-25T11:24:19;16.60;;;0.70;;
2023;SDS011;1016;48.770;9.154;2023-03-25T11:26:47;17.57;;;0.93;;
2023;SDS011;1016;48.770;9.154;2023-03-25T11:29:17;16.07;;;0.80;;
2023;SDS011;1016;48.770;9.154;2023-03-25T11:31:54;16.40;;;0.70;;
2023;SDS011;1016;48.770;9.154;2023-03-25T11:34:21;17.33;;;0.70;;
2023;SDS011;1016;48.770;9.154;2023-03-25T11:36:54;16.90;;;0.80;;
2023;SDS011;1016;48.770;9.154;2023-03-25T11:44:56;16.10;;;0.80;;
2023;SDS011;1016;48.770;9.154;2023-03-25T11:47:30;17.30;;;1.00;;
2023;SDS011;1016;48.770;9.154;2023-03-25T11:49:58;17.40;;;1.10;;
2023;SDS011;1016;48.770;9.154;2023-03-25T11:55:03;17.20;;;0.83;;
2023;SDS011;1016;48.770;9.154;2023-03-25T11:57:30;16.67;;;0.80;;
2023;SDS011;1016;48.770;9.154;2023-03-25T12:00:04;20.20;;;1.17;;
2023;SDS011;1016;48.770;9.154;2023-03-25T12:02:42;18.30;;;1.00;;
2023;SDS011;1016;48.770;9.154;2023-03-25T12:07:44;16.33;;;0.80;;
2023;SDS011;1016;48.770;9.154;2023-03-25T12:10:31;17.80;;;1.07;;
2023;SDS011;1016;48.770;9.154;2023-03-25T12:13:21;17.87;;;1.13;;
2023;SDS011;1016;48.770;9.154;2023-03-25T12:19:06;17.30;;;0.80;;
2023;SDS011;1016;48.770;9.154;2023-03-25T12:24:49;17.40;;;1.03;;
2023;SDS011;1016;48.770;9.154;2023-03-25T12:30:34;16.77;;;0.80;;
2023;SDS011;1016;48.770;9.154;2023-03-25T12:33:24;17.50;;;0.90;;
2023;SDS011;1016;48.770;9.154;2023-03-25T12:36:24;17.60;;;1.07;;
2023;SDS011;1016;48.770;9.154;2023-03-25T12:39:14;18.03;;;0.90;;
2023;SDS011;1016;48.770;9.154;2023-03-25T12:44:47;17.00;;;1.00;;
2023;SDS011;1016;48.770;9.154;2023-03-25T12:47:52;17.10;;;0.80;;
2023;SDS011;1016;48.770;9.154;2023-03-25T12:50:25;16.60;;;1.00;;
2023;SDS011;1016;48.770;9.154;2023-03-25T13:07:21;18.00;;;1.73;;
2023;SDS011;1016;48.770;9.154;2023-03-25T13:09:52;16.53;;;1.00;;
2023;SDS011;1016;48.770;9.154;2023-03-25T13:12:25;16.50;;;0.80;;
2023;SDS011;1016;48.770;9.154;2023-03-25T13:14:55;16.13;;;0.80;;
2023;SDS011;1016;48.770;9.154;2023-03-25T13:17:30;15.93;;;0.80;;
2023;SDS011;1016;48.770;9.154;2023-03-25T13:20:02;16.30;;;0.80;;
2023;SDS011;1016;48.770;9.154;2023-03-25T13:22:35;16.10;;;0.97;;
2023;SDS011;1016;48.770;9.154;2023-03-25T13:25:05;16.90;;;0.87;;
2023;SDS011;1016;48.770;9.154;2023-03-25T13:27:38;16.40;;;0.90;;
2023;SDS011;1016;48.770;9.154;2023-03-25T13:30:06;16.93;;;0.80;;
2023;SDS011;1016;48.770;9.154;2023-03-25T13:32:47;18.10;;;1.10;;
2023;SDS011;1016;48.770;9.154;2023-03-25T13:35:22;17.40;;;1.00;;
2023;SDS011;1016;48.770;9.154;2023-03-25T13:37:50;18.83;;;1.17;;
2023;SDS011;1016;48.770;9.154;2023-03-25T13:40:38;16.60;;;0.70;;
2023;SDS011;1016;48.770;9.154;2023-03-25T13:45:49;15.77;;;0.83;;
2023;SDS011;1016;48.770;9.154;2023-03-25T13:48:35;17.17;;;1.03;;
2023;SDS011;1016;48.770;9.154;2023-03-25T13:51:05;16.07;;;0.70;;
2023;SDS011;1016;48.770;9.154;2023-03-25T13:53:35;16.50;;;0.70;;
2023;SDS011;1016;48.770;9.154;2023-03-25T13:58:33;15.70;;;0.70;;
2023;SDS011;1016;48.770;9.154;2023-03-25T14:04:09;17.93;;;1.00;;
2023;SDS011;1016;48.770;9.154;2023-03-25T14:10:02;16.67;;;0.90;;
2023;SDS011;1016;48.770;9.154;2023-03-25T14:12:39;16.63;;;0.80;;
2023;SDS011;1016;48.770;9.154;2023-03-25T14:17:43;16.80;;;1.00;;
2023;SDS011;1016;48.770;9.154;2023-03-25T14:20:11;17.17;;;0.93;;
2023;SDS011;1016;48.770;9.154;2023-03-25T14:22:43;16.70;;;1.10;;
2023;SDS011;1016;48.770;9.154;2023-03-25T14:25:19;18.90;;;0.93;;
2023;SDS011;1016;48.770;9.154;2023-03-25T14:27:51;16.30;;;0.80;;
2023;SDS011;1016;48.770;9.154;2023-03-25T14:30:21;16.10;;;0.90;;
2023;SDS011;1016;48.770;9.154;2023-03-25T14:32:50;16.20;;;0.90;;
2023;SDS011;1016;48.770;9.154;2023-03-25T14:43:18;17.30;;;1.30;;
2023;SDS011;1016;48.770;9.154;2023-03-25T14:48:43;17.20;;;1.00;;
2023;SDS011;1016;48.770;9.154;2023-03-25T14:51:17;16.40;;;1.10;;
2023;SDS011;1016;48.770;9.154;2023-03-25T15:19:20;16.77;;;1.20;;
2023;SDS011;1016;48.770;9.154;2023-03-25T15:24:32;17.30;;;1.20;;
2023;SDS011;1016;48.770;9.154;2023-03-25T15:27:00;18.48;;;1.20;;
2023;SDS011;1016;48.770;9.154;2023-03-25T15:29:55;17.63;;;1.20;;
2023;SDS011;1016;48.770;9.154;2023-03-25T15:54:45;17.15;;;1.10;;
2023;SDS011;1016;48.770;9.154;2023-03-25T16:00:07;18.02;;;1.30;;
2023;SDS011;1016;48.770;9.154;2023-03-25T16:02:44;17.50;;;1.30;;
2023;SDS011;1016;48.770;9.154;2023-03-25T16:05:21;18.15;;;1.20;;
2023;SDS011;1016;48.770;9.154;2023-03-25T16:07:47;17.40;;;1.20;;
2023;SDS011;1016;48.770;9.154;2023-03-25T16:10:14;17.80;;;1.10;;
2023;SDS011;1016;48.770;9.154;2023-03-25T16:12:50;18.70;;;1.30;;
2023;SDS011;1016;48.770;9.154;2023-03-25T16:15:17;16.40;;;1.60;;
2023;SDS011;1016;48.770;9.154;2023-03-25T16:17:49;17.00;;;1.00;;
2023;SDS011;1016;48.770;9.154;2023-03-25T16:20:16;18.37;;;1.40;;
2023;SDS011;1016;48.770;9.154;2023-03-25T16:22:47;17.53;;;1.17;;
2023;SDS011;1016;48.770;9.154;2023-03-25T16:25:18;17.73;;;1.27;;
2023;SDS011;1016;48.770;9.154;2023-03-25T16:27:51;17.53;;;1.30;;
2023;SDS011;1016;48.770;9.154;2023-03-25T16:30:21;17.47;;;1.20;;
2023;SDS011;1016;48.770;9.154;2023-03-25T16:32:47;17.00;;;1.07;;
2023;SDS011;1016;48.770;9.154;2023-03-25T16:35:20;16.20;;;1.10;;
2023;SDS011;1016;48.770;9.154;2023-03-25T16:37:48;16.57;;;1.30;;
2023;SDS011;1016;48.770;9.154;2023-03-25T16:40:18;16.90;;;1.33;;
2023;SDS011;1016;48.770;9.154;2023-03-25T16:42:51;16.97;;;1.00;;
2023;SDS011;1016;48.770;9.154;2023-03-25T16:45:18;16.13;;;0.90;;
2023;SDS011;1016;48.770;9.154;2023-03-25T16:47:44;18.63;;;1.00;;
2023;SDS011;1016;48.770;9.154;2023-03-25T16:50:13;17.57;;;1.20;;
2023;SDS011;1016;48.770;9.154;2023-03-25T16:52:43;18.30;;;1.20;;
2023;SDS011;1016;48.770;9.154;2023-03-25T16:55:16;21.10;;;1.27;;
2023;SDS011;1016;48.770;9.154;2023-03-25T16:57:52;16.90;;;1.20;;
2023;SDS011;1016;48.770;9.154;2023-03-25T17:00:19;16.33;;;1.00;;
2023;SDS011;1016;48.770;9.154;2023-03-25T17:02:47;17.80;;;1.20;;
2023;SDS011;1016;48.770;9.154;2023-03-25T17:05:18;17.70;;;1.20;;
2023;SDS011;1016;48.770;9.154;2023-03-25T17:07:54;16.97;;;1.00;;
2023;SDS011;1016;48.770;9.154;2023-03-25T17:10:24;18.33;;;1.30;;
2023;SDS011;1016;48.770;9.154;2023-03-25T17:12:53;17.70;;;1.10;;
2023;SDS011;1016;48.770;9.154;2023-03-25T17:15:20;17.70;;;1.10;;
2023;SDS011;1016;48.770;9.154;2023-03-25T17:17:48;17.20;;;0.90;;
2023;SDS011;1016;48.770;9.154;2023-03-25T17:20:19;17.47;;;1.00;;
2023;SDS011;1016;48.770;9.154;2023-03-25T17:22:57;17.80;;;1.40;;
2023;SDS011;1016;48.770;9.154;2023-03-25T17:25:35;17.00;;;1.03;;
2023;SDS011;1016;48.770;9.154;2023-03-25T17:28:24;18.20;;;1.13;;
2023;SDS011;1016;48.770;9.154;2023-03-25T17:30:56;17.80;;;1.47;;
2023;SDS011;1016;48.770;9.154;2023-03-25T17:35:53;17.13;;;1.30;;
2023;SDS011;1016;48.770;9.154;2023-03-25T17:38:31;17.73;;;1.27;;
2023;SDS011;1016;48.770;9.154;2023-03-25T17:41:04;17.73;;;1.27;;
2023;SDS011;1016;48.770;9.154;2023-03-25T17:43:32;18.70;;;1.47;;
2023;SDS011;1016;48.770;9.154;2023-03-25T17:46:00;18.10;;;1.60;;
2023;SDS011;1016;48.770;9.154;2023-03-25T17:48:29;17.53;;;1.17;;
2023;SDS011;1016;48.770;9.154;2023-03-25T17:50:55;17.90;;;1.30;;
2023;SDS011;1016;48.770;9.154;2023-03-25T17:53:22;17.90;;;1.63;;
2023;SDS011;1016;48.770;9.154;2023-03-25T17:55:48;18.73;;;1.30;;
2023;SDS011;1016;48.770;9.154;2023-03-25T17:58:14;18.37;;;1.20;;
2023;SDS011;1016;48.770;9.154;2023-03-25T18:00:40;21.00;;;1.27;;
2023;SDS011;1016;48.770;9.154;2023-03-25T18:03:17;19.40;;;1.70;;
2023;SDS011;1016;48.770;9.154;2023-03-25T18:05:47;17.23;;;1.23;;
2023;SDS011;1016;48.770;9.154;2023-03-25T18:08:17;18.23;;;1.20;;
2023;SDS011;1016;48.770;9.154;2023-03-25T18:10:45;17.20;;;1.57;;
2023;SDS011;1016;48.770;9.154;2023-03-25T18:13:11;17.97;;;1.77;;
2023;SDS011;1016;48.770;9.154;2023-03-25T18:15:36;16.70;;;1.33;;